createdAt,value
2018-05-09T00:01:09.413Z,9.40
2018-05-09T00:03:36.222Z,9.27
2018-05-09T00:06:03.332Z,9.63
2018-05-09T00:08:30.137Z,8.70
2018-05-09T00:10:56.943Z,8.40
2018-05-09T00:13:23.802Z,7.80
2018-05-09T00:15:51.188Z,8.17
2018-05-09T00:18:27.904Z,8.33
2018-05-09T00:20:54.690Z,7.63
2018-05-09T00:23:21.465Z,7.83
2018-05-09T00:25:48.276Z,8.53
2018-05-09T00:28:15.123Z,7.93
2018-05-09T00:30:41.880Z,8.10
2018-05-09T00:33:09.380Z,8.47
2018-05-09T00:35:36.211Z,8.87
2018-05-09T00:38:03.746Z,9.10
2018-05-09T00:40:30.509Z,7.30
2018-05-09T00:42:57.266Z,8.40
2018-05-09T00:45:24.225Z,8.07
2018-05-09T00:47:50.997Z,7.73
2018-05-09T00:50:18.296Z,7.30
2018-05-09T00:52:45.102Z,7.70
2018-05-09T00:55:11.884Z,7.43
2018-05-09T00:57:39.341Z,7.97
2018-05-09T01:00:06.145Z,7.03
2018-05-09T01:02:33.639Z,7.03
2018-05-09T01:05:00.868Z,6.63
2018-05-09T01:07:28.222Z,7.27
2018-05-09T01:09:55.067Z,6.70
2018-05-09T01:12:22.813Z,6.93
2018-05-09T01:14:49.591Z,5.67
2018-05-09T01:17:16.432Z,6.20
2018-05-09T01:19:44.393Z,5.73
2018-05-09T01:22:11.188Z,6.10
2018-05-09T01:24:37.992Z,6.27
2018-05-09T01:27:04.816Z,5.77
2018-05-09T01:29:31.896Z,6.07
2018-05-09T01:31:58.722Z,5.53
2018-05-09T01:34:25.482Z,6.17
2018-05-09T01:36:52.618Z,5.43
2018-05-09T01:39:19.392Z,5.50
2018-05-09T01:41:47.225Z,6.00
2018-05-09T01:44:13.983Z,5.70
2018-05-09T01:46:40.777Z,6.03
2018-05-09T01:49:08.262Z,5.87
2018-05-09T01:51:35.129Z,5.67
2018-05-09T01:54:02.361Z,5.70
2018-05-09T01:56:29.101Z,6.40
2018-05-09T01:58:56.918Z,5.97
2018-05-09T02:01:23.699Z,6.13
2018-05-09T02:03:51.245Z,6.23
2018-05-09T02:06:18.077Z,5.63
2018-05-09T02:08:45.188Z,7.40
2018-05-09T02:11:12.000Z,6.80
2018-05-09T02:13:38.805Z,6.93
2018-05-09T02:16:05.972Z,7.13
2018-05-09T02:18:32.731Z,7.27
2018-05-09T02:21:00.654Z,7.70
2018-05-09T02:23:27.506Z,7.43
2018-05-09T02:25:54.960Z,6.93
2018-05-09T02:28:21.968Z,8.37
2018-05-09T02:30:48.761Z,8.93
2018-05-09T02:33:15.620Z,10.87
2018-05-09T02:35:43.032Z,10.17
2018-05-09T02:38:11.493Z,8.30
2018-05-09T02:40:41.062Z,8.37
2018-05-09T02:43:10.211Z,8.13
2018-05-09T02:45:37.821Z,9.40
2018-05-09T02:48:05.236Z,9.50
2018-05-09T02:50:32.021Z,9.23
2018-05-09T02:52:59.753Z,9.70
2018-05-09T02:55:27.094Z,9.40
2018-05-09T02:57:54.239Z,9.30
2018-05-09T03:00:21.354Z,9.77
2018-05-09T03:02:48.160Z,8.50
2018-05-09T03:05:14.957Z,9.43
2018-05-09T03:07:51.664Z,9.47
2018-05-09T03:10:18.567Z,9.80
2018-05-09T03:12:45.425Z,9.60
2018-05-09T03:15:12.232Z,9.80
2018-05-09T03:17:39.161Z,10.63
2018-05-09T03:20:05.969Z,10.23
2018-05-09T03:22:32.810Z,9.93
2018-05-09T03:24:59.626Z,10.23
2018-05-09T03:27:27.256Z,10.07
2018-05-09T03:29:54.693Z,10.10
2018-05-09T03:32:21.654Z,10.67
2018-05-09T03:34:48.483Z,10.50
2018-05-09T03:37:15.337Z,10.00
2018-05-09T03:39:42.170Z,9.83
2018-05-09T03:42:09.356Z,9.77
2018-05-09T03:44:36.180Z,10.13
2018-05-09T03:47:03.772Z,10.53
2018-05-09T03:49:30.580Z,10.20
2018-05-09T03:51:58.241Z,9.20
2018-05-09T03:54:26.356Z,10.70
2018-05-09T03:56:53.788Z,9.03
2018-05-09T03:59:21.440Z,8.60
2018-05-09T04:01:54.057Z,9.10
2018-05-09T04:04:26.632Z,8.30
2018-05-09T04:06:59.424Z,7.83
2018-05-09T04:09:32.345Z,7.63
2018-05-09T04:12:00.056Z,7.03
2018-05-09T04:14:26.937Z,7.90
2018-05-09T04:16:53.759Z,8.30
2018-05-09T04:19:20.637Z,7.80
2018-05-09T04:21:48.163Z,7.83
2018-05-09T04:24:14.961Z,8.40
2018-05-09T04:26:41.764Z,8.40
2018-05-09T04:29:08.577Z,8.20
2018-05-09T04:31:35.445Z,8.90
2018-05-09T04:34:03.119Z,8.80
2018-05-09T04:36:30.091Z,8.93
2018-05-09T04:38:57.428Z,59.90
2018-05-09T04:41:24.309Z,24.33
2018-05-09T04:43:51.370Z,15.53
2018-05-09T04:46:18.197Z,9.63
2018-05-09T04:48:46.264Z,9.57
2018-05-09T04:51:13.123Z,9.03
2018-05-09T04:53:39.946Z,9.13
2018-05-09T04:56:16.698Z,10.17
2018-05-09T04:58:43.461Z,9.07
2018-05-09T05:01:10.378Z,13.07
2018-05-09T05:06:22.509Z,10.27
2018-05-09T05:08:49.313Z,11.07
2018-05-09T05:11:16.120Z,11.20
2018-05-09T05:13:43.816Z,10.10
2018-05-09T05:16:13.585Z,10.50
2018-05-09T05:18:40.465Z,10.77
2018-05-09T05:21:08.267Z,10.67
2018-05-09T05:23:36.824Z,11.17
2018-05-09T05:26:03.706Z,10.47
2018-05-09T05:28:30.493Z,9.77
2018-05-09T05:31:07.261Z,11.30
2018-05-09T05:33:35.249Z,9.77
2018-05-09T05:36:02.342Z,9.77
2018-05-09T05:38:29.191Z,10.10
2018-05-09T05:40:56.474Z,10.63
2018-05-09T05:43:23.398Z,10.90
2018-05-09T05:46:00.192Z,10.73
2018-05-09T05:48:27.921Z,11.27
2018-05-09T05:50:54.723Z,11.30
2018-05-09T05:53:22.436Z,10.80
2018-05-09T05:55:49.908Z,11.07
2018-05-09T05:58:16.825Z,10.57
2018-05-09T06:00:44.369Z,12.13
2018-05-09T06:03:12.204Z,11.07
2018-05-09T06:05:39.000Z,12.27
2018-05-09T06:08:09.275Z,12.27
2018-05-09T06:10:36.622Z,11.53
2018-05-09T06:13:03.662Z,12.00
2018-05-09T06:15:30.583Z,12.10
2018-05-09T06:17:57.431Z,11.77
2018-05-09T06:20:25.198Z,12.43
2018-05-09T06:22:53.073Z,12.77
2018-05-09T06:25:21.292Z,13.13
2018-05-09T06:27:48.082Z,11.73
2018-05-09T06:30:15.435Z,14.13
2018-05-09T06:32:42.289Z,12.67
2018-05-09T06:35:09.101Z,13.17
2018-05-09T06:37:36.551Z,12.53
2018-05-09T06:40:04.479Z,11.90
2018-05-09T06:42:31.392Z,11.43
2018-05-09T06:44:58.831Z,10.70
2018-05-09T06:47:26.899Z,10.10
2018-05-09T06:50:03.897Z,10.73
2018-05-09T06:52:30.754Z,10.33
2018-05-09T06:54:58.327Z,10.33
2018-05-09T06:57:25.856Z,11.63
2018-05-09T07:02:39.043Z,10.87
2018-05-09T07:05:06.625Z,10.93
2018-05-09T07:07:33.484Z,11.10
2018-05-09T07:23:00.325Z,10.00
2018-05-09T07:38:28.230Z,9.40
2018-05-09T07:40:55.052Z,10.60
2018-05-09T07:43:21.960Z,10.70
2018-05-09T07:45:49.458Z,11.07
2018-05-09T07:48:17.291Z,12.07
2018-05-09T07:50:44.920Z,11.90
2018-05-09T07:53:12.293Z,10.87
2018-05-09T07:55:40.384Z,10.70
2018-05-09T07:58:07.178Z,11.73
2018-05-09T08:00:34.407Z,10.73
2018-05-09T08:03:03.220Z,11.23
2018-05-09T08:05:31.935Z,10.48
2018-05-09T08:07:58.868Z,10.13
2018-05-09T08:10:25.706Z,9.75
2018-05-09T08:12:53.003Z,9.25
2018-05-09T08:15:20.537Z,9.43
2018-05-09T08:17:48.089Z,9.27
2018-05-09T08:20:15.733Z,8.35
2018-05-09T08:22:42.548Z,9.48
2018-05-09T08:25:09.350Z,8.80
2018-05-09T08:27:36.166Z,8.88
2018-05-09T08:30:04.677Z,9.50
2018-05-09T08:32:31.517Z,9.93
2018-05-09T08:34:58.315Z,9.30
2018-05-09T08:37:25.874Z,9.00
2018-05-09T08:39:52.946Z,9.50
2018-05-09T08:42:20.947Z,9.02
2018-05-09T08:44:48.482Z,10.00
2018-05-09T08:47:16.745Z,9.85
2018-05-09T08:49:56.220Z,10.30
2018-05-09T08:52:25.794Z,10.68
2018-05-09T08:54:54.128Z,9.52
2018-05-09T08:57:26.721Z,10.32
2018-05-09T08:59:56.565Z,9.93
2018-05-09T09:02:27.208Z,9.38
2018-05-09T09:04:54.008Z,9.00
2018-05-09T09:07:21.981Z,9.77
2018-05-09T09:09:48.771Z,8.98
2018-05-09T09:12:15.761Z,7.93
2018-05-09T09:14:42.712Z,8.98
2018-05-09T09:17:09.723Z,9.18
2018-05-09T09:19:36.608Z,9.30
2018-05-09T09:22:03.404Z,8.48
2018-05-09T09:24:30.469Z,9.18
2018-05-09T09:26:57.318Z,8.57
2018-05-09T09:29:24.229Z,8.32
2018-05-09T09:31:51.145Z,7.70
2018-05-09T09:34:17.933Z,9.35
2018-05-09T09:36:44.840Z,8.57
2018-05-09T09:39:11.676Z,7.70
2018-05-09T09:41:38.469Z,7.20
2018-05-09T09:44:05.313Z,8.15
2018-05-09T09:46:32.181Z,7.72
2018-05-09T09:48:59.169Z,8.35
2018-05-09T09:51:26.097Z,7.57
2018-05-09T09:53:53.013Z,8.32
2018-05-09T09:56:19.860Z,7.90
2018-05-09T09:58:46.749Z,8.10
2018-05-09T10:01:13.742Z,8.57
2018-05-09T10:03:40.549Z,8.70
2018-05-09T10:06:07.375Z,7.72
2018-05-09T10:08:34.367Z,9.18
2018-05-09T10:11:01.249Z,8.15
2018-05-09T10:13:28.252Z,8.00
2018-05-09T10:15:55.217Z,8.77
2018-05-09T10:18:22.124Z,7.15
2018-05-09T10:20:49.041Z,7.50
2018-05-09T10:23:16.087Z,7.82
2018-05-09T10:25:42.953Z,7.15
2018-05-09T10:28:10.050Z,6.95
2018-05-09T10:30:36.988Z,6.40
2018-05-09T10:33:03.904Z,7.10
2018-05-09T10:35:31.144Z,7.65
2018-05-09T10:37:58.019Z,7.72
2018-05-09T10:40:24.900Z,7.50
2018-05-09T10:42:51.841Z,7.68
2018-05-09T10:45:18.724Z,7.25
2018-05-09T10:47:45.577Z,7.53
2018-05-09T10:50:12.498Z,7.18
2018-05-09T10:52:39.418Z,7.57
2018-05-09T10:55:06.292Z,8.07
2018-05-09T10:57:33.124Z,7.50
2018-05-09T10:59:59.987Z,7.10
2018-05-09T11:02:26.934Z,7.68
2018-05-09T11:04:53.824Z,6.82
2018-05-09T11:07:20.621Z,6.65
2018-05-09T11:09:47.421Z,6.28
2018-05-09T11:12:14.285Z,6.55
2018-05-09T11:14:41.237Z,6.00
2018-05-09T11:17:08.081Z,5.22
2018-05-09T11:19:34.957Z,6.28
2018-05-09T11:22:01.888Z,6.37
2018-05-09T11:24:28.830Z,6.22
2018-05-09T11:26:55.584Z,6.47
2018-05-09T11:29:22.524Z,6.65
2018-05-09T11:31:49.417Z,6.00
2018-05-09T11:34:16.352Z,6.30
2018-05-09T11:36:43.234Z,5.87
2018-05-09T11:39:10.092Z,5.87
2018-05-09T11:41:36.914Z,5.85
2018-05-09T11:44:03.773Z,5.65
2018-05-09T11:46:30.669Z,5.10
2018-05-09T11:48:57.705Z,6.15
2018-05-09T11:51:24.582Z,6.25
2018-05-09T11:53:51.414Z,5.82
2018-05-09T11:56:18.345Z,5.68
2018-05-09T11:58:45.424Z,6.43
2018-05-09T12:01:12.197Z,6.45
2018-05-09T12:03:39.165Z,5.72
2018-05-09T12:06:06.750Z,5.87
2018-05-09T12:08:33.643Z,6.10
2018-05-09T12:11:00.681Z,6.37
2018-05-09T12:13:27.536Z,7.15
2018-05-09T12:15:54.367Z,6.30
2018-05-09T12:18:21.279Z,6.90
2018-05-09T12:20:48.122Z,6.25
2018-05-09T12:23:15.070Z,6.10
2018-05-09T12:25:41.955Z,6.20
2018-05-09T12:28:08.749Z,6.45
2018-05-09T12:30:35.689Z,6.05
2018-05-09T12:33:02.516Z,6.20
2018-05-09T12:35:29.304Z,5.62
2018-05-09T12:37:56.544Z,5.70
2018-05-09T12:40:23.544Z,5.68
2018-05-09T12:42:50.462Z,5.75
2018-05-09T12:45:17.425Z,6.40
2018-05-09T12:47:44.387Z,5.72
2018-05-09T12:50:12.081Z,5.50
2018-05-09T12:52:38.965Z,5.60
2018-05-09T12:55:05.839Z,6.05
2018-05-09T12:57:33.036Z,5.93
2018-05-09T12:59:59.948Z,6.18
2018-05-09T13:02:26.766Z,5.97
2018-05-09T13:04:53.607Z,6.28
2018-05-09T13:07:20.515Z,5.78
2018-05-09T13:09:47.418Z,6.45
2018-05-09T13:12:14.188Z,6.28
2018-05-09T13:14:41.060Z,6.65
2018-05-09T13:17:08.055Z,6.05
2018-05-09T13:19:34.963Z,6.03
2018-05-09T13:22:01.772Z,5.93
2018-05-09T13:24:28.906Z,6.72
2018-05-09T13:26:55.741Z,6.47
2018-05-09T13:29:22.562Z,6.47
2018-05-09T13:31:49.419Z,5.87
2018-05-09T13:34:16.280Z,5.78
2018-05-09T13:36:43.147Z,6.03
2018-05-09T13:39:09.988Z,6.30
2018-05-09T13:41:36.877Z,5.80
2018-05-09T13:44:03.643Z,5.30
2018-05-09T13:46:30.560Z,5.90
2018-05-09T13:48:57.657Z,6.45
2018-05-09T13:51:24.413Z,6.10
2018-05-09T13:53:51.247Z,6.15
2018-05-09T13:56:18.233Z,6.00
2018-05-09T13:58:45.082Z,6.18
2018-05-09T14:01:11.885Z,6.45
2018-05-09T14:03:38.719Z,6.03
2018-05-09T14:06:05.544Z,5.93
2018-05-09T14:08:32.369Z,5.68
2018-05-09T14:10:59.328Z,6.40
2018-05-09T14:13:26.226Z,5.82
2018-05-09T14:15:53.025Z,5.47
2018-05-09T14:18:19.894Z,6.05
2018-05-09T14:20:46.762Z,6.43
2018-05-09T14:23:13.548Z,6.32
2018-05-09T14:25:40.469Z,6.07
2018-05-09T14:28:07.360Z,6.15
2018-05-09T14:30:35.006Z,6.00
2018-05-09T14:33:02.382Z,5.68
2018-05-09T14:35:29.257Z,6.25
2018-05-09T14:37:56.137Z,6.57
2018-05-09T14:40:22.966Z,6.32
2018-05-09T14:42:49.888Z,6.35
2018-05-09T14:45:16.800Z,6.43
2018-05-09T14:47:43.600Z,6.12
2018-05-09T14:50:10.475Z,6.70
2018-05-09T14:52:37.275Z,6.82
2018-05-09T14:55:04.206Z,6.18
2018-05-09T14:57:31.121Z,6.12
2018-05-09T14:59:57.894Z,5.90
2018-05-09T15:02:24.790Z,6.85
2018-05-09T15:04:51.629Z,6.97
2018-05-09T15:07:18.508Z,6.90
2018-05-09T15:09:45.585Z,7.30
2018-05-09T15:12:12.438Z,6.40
2018-05-09T15:14:39.236Z,6.57
2018-05-09T15:17:06.013Z,5.90
2018-05-09T15:19:32.880Z,6.75
2018-05-09T15:21:59.812Z,6.32
2018-05-09T15:24:26.572Z,6.72
2018-05-09T15:26:53.405Z,6.85
2018-05-09T15:29:20.281Z,6.72
2018-05-09T15:31:47.202Z,6.82
2018-05-09T15:34:14.829Z,6.28
2018-05-09T15:36:42.595Z,6.82
2018-05-09T15:39:20.097Z,6.85
2018-05-09T15:41:46.979Z,6.28
2018-05-09T15:44:13.867Z,6.62
2018-05-09T15:46:40.681Z,6.00
2018-05-09T15:49:08.305Z,7.12
2018-05-09T15:51:35.281Z,6.43
2018-05-09T15:54:02.278Z,7.25
2018-05-09T15:56:29.149Z,6.93
2018-05-09T15:58:59.323Z,6.87
2018-05-09T16:01:26.825Z,5.78
2018-05-09T16:03:53.680Z,5.05
2018-05-09T16:06:21.448Z,5.10
2018-05-09T16:08:48.265Z,4.82
2018-05-09T16:11:16.033Z,4.68
2018-05-09T16:13:42.881Z,4.82
2018-05-09T16:16:11.097Z,4.80
2018-05-09T16:18:37.874Z,4.70
2018-05-09T16:21:05.239Z,5.20
2018-05-09T16:23:32.048Z,5.40
2018-05-09T16:25:58.900Z,5.50
2018-05-09T16:28:26.080Z,4.93
2018-05-09T16:30:53.845Z,5.40
2018-05-09T16:33:21.320Z,6.57
2018-05-09T16:35:49.508Z,5.43
2018-05-09T16:38:16.381Z,6.20
2018-05-09T16:40:43.287Z,6.90
2018-05-09T16:43:10.107Z,7.57
2018-05-09T16:45:37.383Z,7.30
2018-05-09T16:48:04.969Z,8.30
2018-05-09T16:50:31.822Z,7.47
2018-05-09T16:52:58.861Z,8.07
2018-05-09T16:55:27.103Z,7.73
2018-05-09T16:57:54.763Z,7.60
2018-05-09T17:00:21.658Z,8.40
2018-05-09T17:02:49.452Z,8.13
2018-05-09T17:05:17.314Z,8.60
2018-05-09T17:07:45.877Z,9.27
2018-05-09T17:10:13.463Z,8.67
2018-05-09T17:12:40.323Z,8.13
2018-05-09T17:15:07.205Z,8.00
2018-05-09T17:17:34.892Z,8.27
2018-05-09T17:20:02.488Z,8.50
2018-05-09T17:22:33.894Z,9.00
2018-05-09T17:25:01.680Z,8.83
2018-05-09T17:27:30.362Z,9.73
2018-05-09T17:29:58.901Z,8.83
2018-05-09T17:32:26.313Z,8.80
2018-05-09T17:34:53.209Z,9.70
2018-05-09T17:37:20.113Z,9.40
2018-05-09T17:39:48.296Z,10.00
2018-05-09T17:42:15.122Z,8.07
2018-05-09T17:44:42.027Z,8.73
2018-05-09T17:47:08.914Z,11.27
2018-05-09T17:49:36.721Z,9.70
2018-05-09T17:52:03.556Z,8.83
2018-05-09T17:54:30.358Z,10.03
2018-05-09T17:56:57.151Z,10.50
2018-05-09T17:59:24.520Z,10.00
2018-05-09T18:01:51.374Z,9.73
2018-05-09T18:04:18.169Z,9.60
2018-05-09T18:06:44.957Z,9.43
2018-05-09T18:09:11.793Z,9.67
2018-05-09T18:11:38.618Z,9.50
2018-05-09T18:14:06.729Z,9.77
2018-05-09T18:16:34.183Z,11.30
2018-05-09T18:19:02.041Z,12.37
2018-05-09T18:21:29.776Z,11.70
2018-05-09T18:23:57.390Z,11.70
2018-05-09T18:26:27.955Z,11.27
2018-05-09T18:28:54.889Z,15.17
2018-05-09T18:31:22.502Z,14.63
2018-05-09T18:33:49.285Z,14.27
2018-05-09T18:36:16.160Z,13.57
2018-05-09T18:38:43.825Z,16.00
2018-05-09T18:41:12.410Z,12.40
2018-05-09T18:43:39.276Z,11.97
2018-05-09T18:46:06.957Z,12.60
2018-05-09T18:48:35.369Z,11.87
2018-05-09T18:51:02.753Z,12.63
2018-05-09T18:53:29.902Z,12.87
2018-05-09T18:55:56.730Z,14.47
2018-05-09T18:58:23.585Z,14.00
2018-05-09T19:00:51.800Z,14.03
2018-05-09T19:03:18.673Z,14.30
2018-05-09T19:05:46.543Z,14.93
2018-05-09T19:08:13.832Z,15.80
2018-05-09T19:10:40.621Z,15.43
2018-05-09T19:13:17.794Z,14.90
2018-05-09T19:15:54.964Z,11.77
2018-05-09T19:18:23.104Z,10.37
2018-05-09T19:20:50.020Z,10.47
2018-05-09T19:23:17.153Z,10.43
2018-05-09T19:25:44.118Z,10.33
2018-05-09T19:28:10.969Z,10.20
2018-05-09T19:30:37.825Z,10.73
2018-05-09T19:33:04.645Z,10.00
2018-05-09T19:35:31.594Z,11.40
2018-05-09T19:37:59.294Z,9.90
2018-05-09T19:40:26.154Z,11.23
2018-05-09T19:42:52.981Z,11.97
2018-05-09T19:45:20.855Z,11.17
2018-05-09T19:47:47.823Z,10.17
2018-05-09T19:50:15.642Z,10.50
2018-05-09T19:52:43.613Z,11.47
2018-05-09T19:55:10.546Z,11.93
2018-05-09T19:57:37.766Z,14.97
2018-05-09T20:00:06.274Z,13.20
2018-05-09T20:02:33.682Z,14.40
2018-05-09T20:05:00.627Z,15.13
2018-05-09T20:07:27.535Z,13.63
2018-05-09T20:09:55.488Z,13.40
2018-05-09T20:12:22.480Z,12.63
2018-05-09T20:14:49.322Z,12.97
2018-05-09T20:17:16.861Z,13.57
2018-05-09T20:19:44.708Z,13.70
2018-05-09T20:22:13.049Z,14.50
2018-05-09T20:24:39.857Z,14.57
2018-05-09T20:27:07.316Z,15.13
2018-05-09T20:29:34.911Z,13.73
2018-05-09T20:32:07.475Z,13.97
2018-05-09T20:34:44.329Z,14.27
2018-05-09T20:37:11.210Z,13.90
2018-05-09T20:39:39.378Z,15.07
2018-05-09T20:42:07.242Z,13.60
2018-05-09T20:44:35.669Z,14.03
2018-05-09T20:47:02.539Z,14.60
2018-05-09T20:49:31.888Z,15.67
2018-05-09T20:52:01.245Z,16.13
2018-05-09T20:54:38.004Z,15.30
2018-05-09T20:57:04.828Z,15.57
2018-05-09T20:59:31.681Z,16.17
2018-05-09T21:01:58.931Z,16.77
2018-05-09T21:04:26.771Z,15.73
2018-05-09T21:06:53.564Z,16.27
2018-05-09T21:09:20.470Z,17.90
2018-05-09T21:12:02.141Z,18.20
2018-05-09T21:14:29.541Z,18.17
2018-05-09T21:16:57.075Z,17.03
2018-05-09T21:19:23.956Z,17.53
2018-05-09T21:22:01.062Z,17.07
2018-05-09T21:27:17.682Z,17.70
2018-05-09T21:29:44.436Z,19.50
2018-05-09T21:32:11.484Z,18.10
2018-05-09T21:34:38.328Z,19.07
2018-05-09T21:37:05.110Z,18.63
2018-05-09T21:39:32.452Z,20.37
2018-05-09T21:42:00.246Z,20.80
2018-05-09T21:44:27.102Z,20.07
2018-05-09T21:46:54.568Z,17.73
2018-05-09T21:49:21.748Z,20.10
2018-05-09T21:51:49.615Z,18.57
2018-05-09T21:54:16.473Z,18.87
2018-05-09T21:56:44.101Z,20.47
2018-05-09T21:59:11.963Z,21.47
2018-05-09T22:01:39.793Z,19.23
2018-05-09T22:04:06.580Z,19.03
2018-05-09T22:06:33.644Z,17.60
2018-05-09T22:09:00.462Z,18.83
2018-05-09T22:11:28.423Z,18.07
2018-05-09T22:13:55.741Z,17.50
2018-05-09T22:16:22.644Z,15.83
2018-05-09T22:18:49.755Z,15.17
2018-05-09T22:21:26.493Z,16.33
2018-05-09T22:23:54.596Z,17.37
2018-05-09T22:26:22.237Z,17.60
2018-05-09T22:28:49.156Z,16.83
2018-05-09T22:31:16.761Z,16.33
2018-05-09T22:33:43.645Z,15.67
2018-05-09T22:36:11.436Z,15.80
2018-05-09T22:38:38.293Z,17.60
2018-05-09T22:41:05.149Z,19.13
2018-05-09T22:43:31.942Z,18.47
2018-05-09T22:45:59.490Z,18.03
2018-05-09T22:48:27.128Z,17.70
2018-05-09T22:50:53.945Z,19.83
2018-05-09T22:53:22.572Z,20.63
2018-05-09T22:55:49.754Z,19.73
2018-05-09T22:58:16.591Z,20.40
2018-05-09T23:00:44.116Z,21.17
2018-05-09T23:03:11.728Z,20.50
2018-05-09T23:05:38.950Z,20.20
2018-05-09T23:08:05.807Z,19.90
2018-05-09T23:10:33.453Z,19.43
2018-05-09T23:13:00.321Z,17.40
2018-05-09T23:15:27.160Z,21.83
2018-05-09T23:17:54.858Z,21.97
2018-05-09T23:20:22.772Z,20.20
2018-05-09T23:22:49.993Z,19.33
2018-05-09T23:25:17.763Z,18.93
2018-05-09T23:27:45.280Z,20.70
2018-05-09T23:30:12.521Z,21.20
2018-05-09T23:32:39.472Z,18.50
2018-05-09T23:35:07.188Z,22.67
2018-05-09T23:37:34.013Z,21.43
2018-05-09T23:40:00.870Z,22.00
2018-05-09T23:42:27.900Z,24.00
